Panagia — V2OQ5 — position and weather

sailwx.info

Track history (hours):
 
Tides and Currents Weather Stations Pressure Air Temp Water Temp Dewpoint Dewpoint Depression Visibility Wind Speed Wind Dir Waves Ship Positions

Panagia

Last reported at 2015-Mar-22 19:17 UTC. Time now 2015-Apr-02 03:11 UTC.
Position S 28°06' E 153°54'.
Warning: this ship's position is 10 days out of date.

Length 120 m; draft 6.3 m.

Type: Cargo ship. MMSI: 304610000.

Date/timePositionNaut miles runAvg speedWind from/ knotsBaromVisibWave heightAir tempDewpointWater temp
2015-Mar-22 19:17S 28°06' E 153°54'27911.3
2015-Mar-21 18:31S 32°38' E 152°43'1611.2
2015-Mar-21 17:07S 32°51' E 152°31'712.0
2015-Mar-21 16:33S 32°56' E 152°26'1212.0
2015-Mar-21 15:33S 33°06' E 152°18'300 5.8
2015-Mar-19 12:10S 37°43' E 149°58'812.8
2015-Mar-19 11:33S 37°49' E 149°51'1313.0
2015-Mar-19 10:32S 37°58' E 149°39'3812.5
2015-Mar-19 07:30S 38°20' E 148°60'1112.2
2015-Mar-19 06:33S 38°27' E 148°48'1212.3
2015-Mar-19 05:33S 38°34' E 148°35'1312.5
2015-Mar-19 04:33S 38°42' E 148°23'1313.3
2015-Mar-19 03:33S 38°48' E 148°08'1313.4
2015-Mar-19 02:33S 38°53' E 147°52'1313.3
2015-Mar-19 01:33S 38°58' E 147°36'1313.1
2015-Mar-19 00:33S 39°03' E 147°20'1312.8
2015-Mar-18 23:33S 39°08' E 147°05'1212.5
2015-Mar-18 22:33S 39°12' E 146°50'1212.2
2015-Mar-18 21:33S 39°17' E 146°35'1312.8
2015-Mar-18 20:33S 39°16' E 146°19'1313.3
2015-Mar-18 19:33S 39°15' E 146°01'1413.4
2015-Mar-18 18:33S 39°14' E 145°44'1313.3
2015-Mar-18 17:33S 39°13' E 145°27'14312.9
2015-Mar-18 06:31S 38°52' E 142°25'1413.2
2015-Mar-18 05:28S 38°48' E 142°08'1213.5
2015-Mar-18 04:33S 38°44' E 141°53'26513.3
2015-Mar-17 08:33S 35°34' E 138°00'1312.2
2015-Mar-17 07:31S 35°23' E 138°06'1212.2
2015-Mar-17 06:33S 35°12' E 138°12'1212.4
2015-Mar-17 05:33S 35°00' E 138°17'1212.3
2015-Mar-17 04:33S 34°49' E 138°23'6 0.6
2015-Mar-16 19:11S 34°50' E 138°30'0 0.0
2015-Mar-16 16:31S 34°50' E 138°30'0 0.0
2015-Mar-16 15:31S 34°50' E 138°31'0 0.0
2015-Mar-16 14:13S 34°50' E 138°30'0 0.0
2015-Mar-16 07:31S 34°50' E 138°30'0 0.0
2015-Mar-16 00:30S 34°50' E 138°30'0 0.0
2015-Mar-15 23:30S 34°50' E 138°30'0 0.0
2015-Mar-15 22:21S 34°50' E 138°31'0 0.0
2015-Mar-15 20:30S 34°50' E 138°30'0 0.0
2015-Mar-15 19:30S 34°50' E 138°30'0 0.1
2015-Mar-15 18:33S 34°50' E 138°31'0 0.0
2015-Mar-15 17:27S 34°50' E 138°30'0 0.0
2015-Mar-15 16:06S 34°50' E 138°31'0 0.0
2015-Mar-15 15:24S 34°50' E 138°31'0 0.0
2015-Mar-15 13:30S 34°50' E 138°30'0 0.0
2015-Mar-15 11:27S 34°50' E 138°30'0 0.0
2015-Mar-15 10:04S 34°50' E 138°30'0 0.0
2015-Mar-15 04:30S 34°50' E 138°31'0 0.1
2015-Mar-15 03:32S 34°50' E 138°30'7 3.3
2015-Mar-15 01:19S 34°48' E 138°22'810.9
2015-Mar-15 00:33S 34°54' E 138°15'1111.2
2015-Mar-14 23:33S 35°03' E 138°07'1110.9
2015-Mar-14 22:32S 35°12' E 137°59'1412.3
2015-Mar-14 21:22S 35°18' E 137°43'29513.3
2015-Mar-13 23:15S 35°29' E 131°42'  
Track history (hours):
 
Tides and Currents Weather Stations Pressure Air Temp Water Temp Dewpoint Dewpoint Depression Visibility Wind Speed Wind Dir Waves Ship Positions

Panagia

Last reported at 2015-Mar-22 19:17 UTC. Time now 2015-Apr-02 03:11 UTC.
Position S 28°06' E 153°54'.
Warning: this ship's position is 10 days out of date.

Length 120 m; draft 6.3 m.

Type: Cargo ship. MMSI: 304610000.

Date/timePositionNaut miles runAvg speedWind from/ knotsBaromVisibWave heightAir tempDewpointWater temp
2015-Mar-22 19:17S 28°06' E 153°54'27911.3
2015-Mar-21 18:31S 32°38' E 152°43'1611.2
2015-Mar-21 17:07S 32°51' E 152°31'712.0
2015-Mar-21 16:33S 32°56' E 152°26'1212.0
2015-Mar-21 15:33S 33°06' E 152°18'300 5.8
2015-Mar-19 12:10S 37°43' E 149°58'812.8
2015-Mar-19 11:33S 37°49' E 149°51'1313.0
2015-Mar-19 10:32S 37°58' E 149°39'3812.5
2015-Mar-19 07:30S 38°20' E 148°60'1112.2
2015-Mar-19 06:33S 38°27' E 148°48'1212.3
2015-Mar-19 05:33S 38°34' E 148°35'1312.5
2015-Mar-19 04:33S 38°42' E 148°23'1313.3
2015-Mar-19 03:33S 38°48' E 148°08'1313.4
2015-Mar-19 02:33S 38°53' E 147°52'1313.3
2015-Mar-19 01:33S 38°58' E 147°36'1313.1
2015-Mar-19 00:33S 39°03' E 147°20'1312.8
2015-Mar-18 23:33S 39°08' E 147°05'1212.5
2015-Mar-18 22:33S 39°12' E 146°50'1212.2
2015-Mar-18 21:33S 39°17' E 146°35'1312.8
2015-Mar-18 20:33S 39°16' E 146°19'1313.3
2015-Mar-18 19:33S 39°15' E 146°01'1413.4
2015-Mar-18 18:33S 39°14' E 145°44'1313.3
2015-Mar-18 17:33S 39°13' E 145°27'14312.9
2015-Mar-18 06:31S 38°52' E 142°25'1413.2
2015-Mar-18 05:28S 38°48' E 142°08'1213.5
2015-Mar-18 04:33S 38°44' E 141°53'26513.3
2015-Mar-17 08:33S 35°34' E 138°00'1312.2
2015-Mar-17 07:31S 35°23' E 138°06'1212.2
2015-Mar-17 06:33S 35°12' E 138°12'1212.4
2015-Mar-17 05:33S 35°00' E 138°17'1212.3
2015-Mar-17 04:33S 34°49' E 138°23'6 0.6
2015-Mar-16 19:11S 34°50' E 138°30'0 0.0
2015-Mar-16 16:31S 34°50' E 138°30'0 0.0
2015-Mar-16 15:31S 34°50' E 138°31'0 0.0
2015-Mar-16 14:13S 34°50' E 138°30'0 0.0
2015-Mar-16 07:31S 34°50' E 138°30'0 0.0
2015-Mar-16 00:30S 34°50' E 138°30'0 0.0
2015-Mar-15 23:30S 34°50' E 138°30'0 0.0
2015-Mar-15 22:21S 34°50' E 138°31'0 0.0
2015-Mar-15 20:30S 34°50' E 138°30'0 0.0
2015-Mar-15 19:30S 34°50' E 138°30'0 0.1
2015-Mar-15 18:33S 34°50' E 138°31'0 0.0
2015-Mar-15 17:27S 34°50' E 138°30'0 0.0
2015-Mar-15 16:06S 34°50' E 138°31'0 0.0
2015-Mar-15 15:24S 34°50' E 138°31'0 0.0
2015-Mar-15 13:30S 34°50' E 138°30'0 0.0
2015-Mar-15 11:27S 34°50' E 138°30'0 0.0
2015-Mar-15 10:04S 34°50' E 138°30'0 0.0
2015-Mar-15 04:30S 34°50' E 138°31'0 0.1
2015-Mar-15 03:32S 34°50' E 138°30'7 3.3
2015-Mar-15 01:19S 34°48' E 138°22'810.9
2015-Mar-15 00:33S 34°54' E 138°15'1111.2
2015-Mar-14 23:33S 35°03' E 138°07'1110.9
2015-Mar-14 22:32S 35°12' E 137°59'1412.3
2015-Mar-14 21:22S 35°18' E 137°43'29513.3
2015-Mar-13 23:15S 35°29' E 131°42'  

Dump ship's entire track history